Archibald, Louisiana
Current Conditions -  °F | °C
As of 9:53 AM on Thursday 29 Jan 2015 (Local Time) from KMLU Reporting Station
Few Clouds Few Clouds  
Wind Chill: 61°   Ceiling: Unl
Heat Index: 61°   Visibility: 10mi
Dew Point: 53°   Wind: 12mph
Humidity: 75%   Direction: 230°SW
Pressure: 30.21"   Gusts: NA
Location:  32.35°N, 91.78°W
Report Text: KMLU 291553Z 23010KT 10SM FEW110 16/12 A3021 RMK AO2 SLP229 T01610117
Loading
Personal Weather Stations






























Interactive Weather Map New forecast layout! Learn more

10-Day Weather Forecast

Advertisements
Track Severe Weather on mobile